Maersk Barry — OYJE2 — position and weather

sailwx.info

Track history (hours):
 
Tides and Currents Weather Stations Pressure Air Temp Water Temp Dewpoint Dewpoint Depression Visibility Wind Speed Wind Dir Waves Ship Positions

Maersk Barry

Last reported at 2014-Jul-31 12:17 UTC. Time now 2014-Aug-01 16:02 UTC.
Position N 49°27' E 000°40'.

Length 175 m; draft 9.7 m.

Type: Tanker. MMSI: 219127000.

Date/timePositionNaut miles runAvg speedWind from/ knotsBaromVisibWave heightAir tempDewpointWater temp
2014-Jul-31 12:17N 49°27' E 000°40'7 8.9
2014-Jul-31 11:27N 49°29' E 000°28'1112.5
2014-Jul-31 10:33N 49°26' E 000°12'9 8.9
2014-Jul-31 09:33N 49°28' W 000°02'6 6.3
2014-Jul-31 08:33N 49°30' W 000°11'7 6.6
2014-Jul-31 07:33N 49°37' W 000°11'6 6.5
2014-Jul-31 06:33N 49°44' W 000°11'8 6.9
2014-Jul-31 05:26N 49°51' W 000°10'11 9.5
2014-Jul-31 04:14N 50°03' W 000°09'7 9.3
2014-Jul-31 03:31N 50°09' W 000°08'9 8.1
2014-Jul-31 02:21N 50°19' W 000°07'8 9.6
2014-Jul-31 01:33N 50°26' W 000°04'9 8.4
2014-Jul-31 00:33N 50°30' E 000°08'8 8.3
2014-Jul-30 23:33N 50°32' E 000°21'8 8.0
2014-Jul-30 22:33N 50°34' E 000°33'8 8.3
2014-Jul-30 21:33N 50°38' E 000°44'10 9.6
2014-Jul-30 20:33N 50°44' E 000°56'1110.6
2014-Jul-30 19:33N 50°50' E 001°10'10 9.6
2014-Jul-30 18:33N 50°57' E 001°21'10 9.8
2014-Jul-30 17:33N 51°05' E 001°30'8 7.9
2014-Jul-30 16:33N 51°09' E 001°40'8 7.6
2014-Jul-30 15:33N 51°15' E 001°48'8 7.7
2014-Jul-30 14:33N 51°22' E 001°54'8 8.3
2014-Jul-30 13:34N 51°29' E 002°01'10 9.6
2014-Jul-30 12:33N 51°36' E 002°11'11810.7
2014-Jul-30 01:33N 53°24' E 003°30'10211.2
2014-Jul-29 16:25N 54°43' E 005°21'1011.8
2014-Jul-29 15:32N 54°50' E 005°34'1511.6
2014-Jul-29 14:12N 55°03' E 005°49'811.6
2014-Jul-29 13:32N 55°09' E 005°57'12711.4
2014-Jul-29 02:27N 56°58' E 007°55'4610.9
2014-Jul-28 22:11N 57°32' E 008°52'910.3
2014-Jul-28 21:21N 57°37' E 009°05'810.2
2014-Jul-28 20:33N 57°42' E 009°17'10 9.8
2014-Jul-28 19:33N 57°48' E 009°32'1010.1
2014-Jul-28 18:33N 57°48' E 009°51'1010.4
2014-Jul-28 17:33N 57°48' E 010°10'1010.1
2014-Jul-28 16:33N 57°49' E 010°29'10 9.8
2014-Jul-28 15:33N 57°48' E 010°47'1110.4
2014-Jul-28 14:33N 57°40' E 011°02'1110.9
2014-Jul-28 13:33N 57°33' E 011°16'1110.8
2014-Jul-28 12:33N 57°24' E 011°28'1111.1
2014-Jul-28 11:33N 57°14' E 011°35'1110.8
2014-Jul-28 10:33N 57°04' E 011°42'1110.6
2014-Jul-28 09:31N 56°54' E 011°49'10 9.9
2014-Jul-28 08:33N 56°44' E 011°52'1110.9
2014-Jul-28 07:31N 56°37' E 011°36'2310.5
2014-Jul-28 05:18N 56°21' E 011°06'2211.4
2014-Jul-28 03:24N 55°59' E 011°02'1011.5
2014-Jul-28 02:31N 55°51' E 010°51'2410.5
2014-Jul-28 00:14N 55°27' E 010°57'1810.1
2014-Jul-27 22:29N 55°10' E 011°03'3110.5
2014-Jul-27 19:30N 54°40' E 010°50'9 9.3
2014-Jul-27 18:33N 54°36' E 011°04'1111.3
2014-Jul-27 17:33N 54°33' E 011°22'1111.4
2014-Jul-27 16:33N 54°28' E 011°40'1111.2
2014-Jul-27 15:33N 54°26' E 011°59'10 9.7
2014-Jul-27 14:33N 54°31' E 012°13'1111.1
2014-Jul-27 13:33N 54°40' E 012°26'1111.3
2014-Jul-27 12:33N 54°46' E 012°42'1110.9
2014-Jul-27 11:33N 54°51' E 012°59'1111.4
2014-Jul-27 10:33N 54°54' E 013°18'1111.4
2014-Jul-27 09:33N 54°58' E 013°37'1111.2
2014-Jul-27 08:32N 55°02' E 013°55'1111.1
2014-Jul-27 07:33N 55°08' E 014°10'1212.3
2014-Jul-27 06:33N 55°18' E 014°24'1212.2
2014-Jul-27 05:33N 55°27' E 014°39'1211.8
2014-Jul-27 04:33N 55°30' E 014°59'1211.9
2014-Jul-27 03:33N 55°29' E 015°20'1211.9
2014-Jul-27 02:33N 55°27' E 015°41'1211.8
2014-Jul-27 01:33N 55°26' E 016°02'1211.9
2014-Jul-27 00:33N 55°25' E 016°23'1212.1
2014-Jul-26 23:33N 55°24' E 016°44'1212.2
2014-Jul-26 22:33N 55°23' E 017°05'1212.2
2014-Jul-26 21:33N 55°22' E 017°27'1212.2
2014-Jul-26 20:33N 55°20' E 017°48'1212.2
2014-Jul-26 19:33N 55°19' E 018°09'1212.1
2014-Jul-26 18:33N 55°17' E 018°30'1211.8
2014-Jul-26 17:33N 55°17' E 018°51'1212.1
2014-Jul-26 16:33N 55°22' E 019°11'1212.1
2014-Jul-26 15:33N 55°26' E 019°30'1212.0
2014-Jul-26 14:33N 55°31' E 019°50'1212.1
2014-Jul-26 13:33N 55°35' E 020°10'26 0.6
2014-Jul-24 18:29N 55°46' E 020°52'0 0.0
2014-Jul-24 17:23N 55°46' E 020°52'0 0.0
2014-Jul-24 16:29N 55°46' E 020°52'0 0.0
2014-Jul-24 15:32N 55°46' E 020°52'0 0.0
2014-Jul-24 14:32N 55°46' E 020°52'0 0.0
2014-Jul-24 13:29N 55°46' E 020°52'0 0.0
2014-Jul-24 12:29N 55°46' E 020°52'0 0.0
2014-Jul-24 11:32N 55°46' E 020°52'0 0.0
2014-Jul-24 10:23N 55°46' E 020°52'0 0.0
2014-Jul-24 08:32N 55°46' E 020°52'0 0.0
2014-Jul-24 07:20N 55°46' E 020°51'0 0.0
2014-Jul-24 06:32N 55°46' E 020°51'0 0.0
2014-Jul-24 05:29N 55°46' E 020°51'0 0.0
2014-Jul-24 04:29N 55°46' E 020°51'0 0.0
2014-Jul-24 03:32N 55°46' E 020°51'0 0.0
2014-Jul-24 02:32N 55°46' E 020°51'0 0.0
2014-Jul-24 01:17N 55°46' E 020°51'0 0.0
2014-Jul-24 00:32N 55°46' E 020°51'0 0.0
2014-Jul-23 18:32N 55°46' E 020°51'0 0.0
2014-Jul-23 17:32N 55°46' E 020°51'0 0.0
2014-Jul-23 16:29N 55°46' E 020°52'0 0.0
2014-Jul-23 15:32N 55°46' E 020°52'0 0.0
2014-Jul-23 14:32N 55°46' E 020°52'0 0.0
2014-Jul-23 13:32N 55°46' E 020°52'0 0.0
2014-Jul-23 12:32N 55°46' E 020°52'0 0.0
2014-Jul-23 08:29N 55°46' E 020°52'0 0.0
2014-Jul-23 07:32N 55°46' E 020°51'0 0.0
2014-Jul-23 06:32N 55°46' E 020°51'0 0.0
2014-Jul-23 05:32N 55°46' E 020°51'0 0.0
2014-Jul-23 04:32N 55°46' E 020°51'0 0.0
2014-Jul-23 03:32N 55°46' E 020°51'0 0.0
2014-Jul-23 02:29N 55°46' E 020°51'0 0.0
2014-Jul-23 01:32N 55°46' E 020°51'0 0.0
2014-Jul-22 18:29N 55°46' E 020°51'0 0.0
2014-Jul-22 17:32N 55°46' E 020°52'0 0.0
2014-Jul-22 16:29N 55°46' E 020°51'0 0.0
2014-Jul-22 15:29N 55°46' E 020°52'0 0.0
2014-Jul-22 14:32N 55°46' E 020°52'0 0.0
2014-Jul-22 13:20N 55°46' E 020°52'0 0.0
2014-Jul-22 12:23N 55°46' E 020°52'0 0.0
2014-Jul-22 11:32N 55°46' E 020°52'0 0.0
2014-Jul-22 07:29N 55°46' E 020°52'0 0.0
2014-Jul-22 06:32N 55°46' E 020°52'0 0.0
2014-Jul-22 05:29N 55°46' E 020°52'0 0.0
2014-Jul-21 18:32N 55°46' E 020°51'  
Track history (hours):
 
Tides and Currents Weather Stations Pressure Air Temp Water Temp Dewpoint Dewpoint Depression Visibility Wind Speed Wind Dir Waves Ship Positions

Maersk Barry

Last reported at 2014-Jul-31 12:17 UTC. Time now 2014-Aug-01 16:02 UTC.
Position N 49°27' E 000°40'.

Length 175 m; draft 9.7 m.

Type: Tanker. MMSI: 219127000.

Date/timePositionNaut miles runAvg speedWind from/ knotsBaromVisibWave heightAir tempDewpointWater temp
2014-Jul-31 12:17N 49°27' E 000°40'7 8.9
2014-Jul-31 11:27N 49°29' E 000°28'1112.5
2014-Jul-31 10:33N 49°26' E 000°12'9 8.9
2014-Jul-31 09:33N 49°28' W 000°02'6 6.3
2014-Jul-31 08:33N 49°30' W 000°11'7 6.6
2014-Jul-31 07:33N 49°37' W 000°11'6 6.5
2014-Jul-31 06:33N 49°44' W 000°11'8 6.9
2014-Jul-31 05:26N 49°51' W 000°10'11 9.5
2014-Jul-31 04:14N 50°03' W 000°09'7 9.3
2014-Jul-31 03:31N 50°09' W 000°08'9 8.1
2014-Jul-31 02:21N 50°19' W 000°07'8 9.6
2014-Jul-31 01:33N 50°26' W 000°04'9 8.4
2014-Jul-31 00:33N 50°30' E 000°08'8 8.3
2014-Jul-30 23:33N 50°32' E 000°21'8 8.0
2014-Jul-30 22:33N 50°34' E 000°33'8 8.3
2014-Jul-30 21:33N 50°38' E 000°44'10 9.6
2014-Jul-30 20:33N 50°44' E 000°56'1110.6
2014-Jul-30 19:33N 50°50' E 001°10'10 9.6
2014-Jul-30 18:33N 50°57' E 001°21'10 9.8
2014-Jul-30 17:33N 51°05' E 001°30'8 7.9
2014-Jul-30 16:33N 51°09' E 001°40'8 7.6
2014-Jul-30 15:33N 51°15' E 001°48'8 7.7
2014-Jul-30 14:33N 51°22' E 001°54'8 8.3
2014-Jul-30 13:34N 51°29' E 002°01'10 9.6
2014-Jul-30 12:33N 51°36' E 002°11'11810.7
2014-Jul-30 01:33N 53°24' E 003°30'10211.2
2014-Jul-29 16:25N 54°43' E 005°21'1011.8
2014-Jul-29 15:32N 54°50' E 005°34'1511.6
2014-Jul-29 14:12N 55°03' E 005°49'811.6
2014-Jul-29 13:32N 55°09' E 005°57'12711.4
2014-Jul-29 02:27N 56°58' E 007°55'4610.9
2014-Jul-28 22:11N 57°32' E 008°52'910.3
2014-Jul-28 21:21N 57°37' E 009°05'810.2
2014-Jul-28 20:33N 57°42' E 009°17'10 9.8
2014-Jul-28 19:33N 57°48' E 009°32'1010.1
2014-Jul-28 18:33N 57°48' E 009°51'1010.4
2014-Jul-28 17:33N 57°48' E 010°10'1010.1
2014-Jul-28 16:33N 57°49' E 010°29'10 9.8
2014-Jul-28 15:33N 57°48' E 010°47'1110.4
2014-Jul-28 14:33N 57°40' E 011°02'1110.9
2014-Jul-28 13:33N 57°33' E 011°16'1110.8
2014-Jul-28 12:33N 57°24' E 011°28'1111.1
2014-Jul-28 11:33N 57°14' E 011°35'1110.8
2014-Jul-28 10:33N 57°04' E 011°42'1110.6
2014-Jul-28 09:31N 56°54' E 011°49'10 9.9
2014-Jul-28 08:33N 56°44' E 011°52'1110.9
2014-Jul-28 07:31N 56°37' E 011°36'2310.5
2014-Jul-28 05:18N 56°21' E 011°06'2211.4
2014-Jul-28 03:24N 55°59' E 011°02'1011.5
2014-Jul-28 02:31N 55°51' E 010°51'2410.5
2014-Jul-28 00:14N 55°27' E 010°57'1810.1
2014-Jul-27 22:29N 55°10' E 011°03'3110.5
2014-Jul-27 19:30N 54°40' E 010°50'9 9.3
2014-Jul-27 18:33N 54°36' E 011°04'1111.3
2014-Jul-27 17:33N 54°33' E 011°22'1111.4
2014-Jul-27 16:33N 54°28' E 011°40'1111.2
2014-Jul-27 15:33N 54°26' E 011°59'10 9.7
2014-Jul-27 14:33N 54°31' E 012°13'1111.1
2014-Jul-27 13:33N 54°40' E 012°26'1111.3
2014-Jul-27 12:33N 54°46' E 012°42'1110.9
2014-Jul-27 11:33N 54°51' E 012°59'1111.4
2014-Jul-27 10:33N 54°54' E 013°18'1111.4
2014-Jul-27 09:33N 54°58' E 013°37'1111.2
2014-Jul-27 08:32N 55°02' E 013°55'1111.1
2014-Jul-27 07:33N 55°08' E 014°10'1212.3
2014-Jul-27 06:33N 55°18' E 014°24'1212.2
2014-Jul-27 05:33N 55°27' E 014°39'1211.8
2014-Jul-27 04:33N 55°30' E 014°59'1211.9
2014-Jul-27 03:33N 55°29' E 015°20'1211.9
2014-Jul-27 02:33N 55°27' E 015°41'1211.8
2014-Jul-27 01:33N 55°26' E 016°02'1211.9
2014-Jul-27 00:33N 55°25' E 016°23'1212.1
2014-Jul-26 23:33N 55°24' E 016°44'1212.2
2014-Jul-26 22:33N 55°23' E 017°05'1212.2
2014-Jul-26 21:33N 55°22' E 017°27'1212.2
2014-Jul-26 20:33N 55°20' E 017°48'1212.2
2014-Jul-26 19:33N 55°19' E 018°09'1212.1
2014-Jul-26 18:33N 55°17' E 018°30'1211.8
2014-Jul-26 17:33N 55°17' E 018°51'1212.1
2014-Jul-26 16:33N 55°22' E 019°11'1212.1
2014-Jul-26 15:33N 55°26' E 019°30'1212.0
2014-Jul-26 14:33N 55°31' E 019°50'1212.1
2014-Jul-26 13:33N 55°35' E 020°10'26 0.6
2014-Jul-24 18:29N 55°46' E 020°52'0 0.0
2014-Jul-24 17:23N 55°46' E 020°52'0 0.0
2014-Jul-24 16:29N 55°46' E 020°52'0 0.0
2014-Jul-24 15:32N 55°46' E 020°52'0 0.0
2014-Jul-24 14:32N 55°46' E 020°52'0 0.0
2014-Jul-24 13:29N 55°46' E 020°52'0 0.0
2014-Jul-24 12:29N 55°46' E 020°52'0 0.0
2014-Jul-24 11:32N 55°46' E 020°52'0 0.0
2014-Jul-24 10:23N 55°46' E 020°52'0 0.0
2014-Jul-24 08:32N 55°46' E 020°52'0 0.0
2014-Jul-24 07:20N 55°46' E 020°51'0 0.0
2014-Jul-24 06:32N 55°46' E 020°51'0 0.0
2014-Jul-24 05:29N 55°46' E 020°51'0 0.0
2014-Jul-24 04:29N 55°46' E 020°51'0 0.0
2014-Jul-24 03:32N 55°46' E 020°51'0 0.0
2014-Jul-24 02:32N 55°46' E 020°51'0 0.0
2014-Jul-24 01:17N 55°46' E 020°51'0 0.0
2014-Jul-24 00:32N 55°46' E 020°51'0 0.0
2014-Jul-23 18:32N 55°46' E 020°51'0 0.0
2014-Jul-23 17:32N 55°46' E 020°51'0 0.0
2014-Jul-23 16:29N 55°46' E 020°52'0 0.0
2014-Jul-23 15:32N 55°46' E 020°52'0 0.0
2014-Jul-23 14:32N 55°46' E 020°52'0 0.0
2014-Jul-23 13:32N 55°46' E 020°52'0 0.0
2014-Jul-23 12:32N 55°46' E 020°52'0 0.0
2014-Jul-23 08:29N 55°46' E 020°52'0 0.0
2014-Jul-23 07:32N 55°46' E 020°51'0 0.0
2014-Jul-23 06:32N 55°46' E 020°51'0 0.0
2014-Jul-23 05:32N 55°46' E 020°51'0 0.0
2014-Jul-23 04:32N 55°46' E 020°51'0 0.0
2014-Jul-23 03:32N 55°46' E 020°51'0 0.0
2014-Jul-23 02:29N 55°46' E 020°51'0 0.0
2014-Jul-23 01:32N 55°46' E 020°51'0 0.0
2014-Jul-22 18:29N 55°46' E 020°51'0 0.0
2014-Jul-22 17:32N 55°46' E 020°52'0 0.0
2014-Jul-22 16:29N 55°46' E 020°51'0 0.0
2014-Jul-22 15:29N 55°46' E 020°52'0 0.0
2014-Jul-22 14:32N 55°46' E 020°52'0 0.0
2014-Jul-22 13:20N 55°46' E 020°52'0 0.0
2014-Jul-22 12:23N 55°46' E 020°52'0 0.0
2014-Jul-22 11:32N 55°46' E 020°52'0 0.0
2014-Jul-22 07:29N 55°46' E 020°52'0 0.0
2014-Jul-22 06:32N 55°46' E 020°52'0 0.0
2014-Jul-22 05:29N 55°46' E 020°52'0 0.0
2014-Jul-21 18:32N 55°46' E 020°51'  

Dump ship's entire track history